sensor_id;sensor_type;location;lat;lon;timestamp;temperature;humidity
285;DHT22;127;48.770;9.212;2023-04-15T00:01:07;5.50;99.90
285;DHT22;127;48.770;9.212;2023-04-15T00:03:36;5.50;99.90
285;DHT22;127;48.770;9.212;2023-04-15T00:06:06;5.40;99.90
285;DHT22;127;48.770;9.212;2023-04-15T00:08:36;5.40;99.90
285;DHT22;127;48.770;9.212;2023-04-15T00:11:05;5.30;99.90
285;DHT22;127;48.770;9.212;2023-04-15T00:13:38;5.30;99.90
285;DHT22;127;48.770;9.212;2023-04-15T00:16:07;5.30;99.90
285;DHT22;127;48.770;9.212;2023-04-15T00:18:37;5.20;99.90
285;DHT22;127;48.770;9.212;2023-04-15T00:21:05;5.20;99.90
285;DHT22;127;48.770;9.212;2023-04-15T00:23:37;5.10;99.90
285;DHT22;127;48.770;9.212;2023-04-15T00:26:05;5.10;99.90
285;DHT22;127;48.770;9.212;2023-04-15T00:28:34;5.10;99.90
285;DHT22;127;48.770;9.212;2023-04-15T00:31:06;5.10;99.90
285;DHT22;127;48.770;9.212;2023-04-15T00:33:35;5.10;99.90
285;DHT22;127;48.770;9.212;2023-04-15T00:36:10;5.10;99.90
285;DHT22;127;48.770;9.212;2023-04-15T00:38:39;5.00;99.90
285;DHT22;127;48.770;9.212;2023-04-15T00:41:10;5.00;99.90
285;DHT22;127;48.770;9.212;2023-04-15T00:43:41;4.90;99.90
285;DHT22;127;48.770;9.212;2023-04-15T00:46:15;4.90;99.90
285;DHT22;127;48.770;9.212;2023-04-15T00:48:46;4.90;99.90
285;DHT22;127;48.770;9.212;2023-04-15T00:51:15;4.90;99.90
285;DHT22;127;48.770;9.212;2023-04-15T00:53:46;4.90;99.90
285;DHT22;127;48.770;9.212;2023-04-15T00:56:16;4.90;99.90
285;DHT22;127;48.770;9.212;2023-04-15T00:58:47;4.90;99.90
285;DHT22;127;48.770;9.212;2023-04-15T01:01:20;4.80;99.90
285;DHT22;127;48.770;9.212;2023-04-15T01:03:49;4.70;99.90
285;DHT22;127;48.770;9.212;2023-04-15T01:06:23;4.60;99.90
285;DHT22;127;48.770;9.212;2023-04-15T01:08:55;4.60;99.90
285;DHT22;127;48.770;9.212;2023-04-15T01:11:25;4.50;99.90
285;DHT22;127;48.770;9.212;2023-04-15T01:14:02;4.50;99.90
285;DHT22;127;48.770;9.212;2023-04-15T01:16:34;4.50;99.90
285;DHT22;127;48.770;9.212;2023-04-15T01:19:07;4.50;99.90
285;DHT22;127;48.770;9.212;2023-04-15T01:21:38;4.50;99.90
285;DHT22;127;48.770;9.212;2023-04-15T01:24:09;4.50;99.90
285;DHT22;127;48.770;9.212;2023-04-15T01:26:45;4.50;99.90
285;DHT22;127;48.770;9.212;2023-04-15T01:29:19;4.50;99.90
285;DHT22;127;48.770;9.212;2023-04-15T01:31:50;4.50;99.90
285;DHT22;127;48.770;9.212;2023-04-15T01:34:19;4.50;99.90
285;DHT22;127;48.770;9.212;2023-04-15T01:36:50;4.40;99.90
285;DHT22;127;48.770;9.212;2023-04-15T01:39:19;4.30;99.90
285;DHT22;127;48.770;9.212;2023-04-15T01:41:55;4.30;99.90
285;DHT22;127;48.770;9.212;2023-04-15T01:44:27;4.20;99.90
285;DHT22;127;48.770;9.212;2023-04-15T01:46:57;4.20;99.90
285;DHT22;127;48.770;9.212;2023-04-15T01:49:27;4.10;99.90
285;DHT22;127;48.770;9.212;2023-04-15T01:51:56;4.00;99.90
285;DHT22;127;48.770;9.212;2023-04-15T01:54:25;4.00;99.90
285;DHT22;127;48.770;9.212;2023-04-15T01:56:57;3.90;99.90
285;DHT22;127;48.770;9.212;2023-04-15T01:59:34;3.80;99.90
285;DHT22;127;48.770;9.212;2023-04-15T02:02:06;3.80;99.90
285;DHT22;127;48.770;9.212;2023-04-15T02:04:35;3.80;99.90
285;DHT22;127;48.770;9.212;2023-04-15T02:07:10;3.80;99.90
285;DHT22;127;48.770;9.212;2023-04-15T02:09:38;3.80;99.90
285;DHT22;127;48.770;9.212;2023-04-15T02:12:24;3.70;99.90
285;DHT22;127;48.770;9.212;2023-04-15T02:14:53;3.70;99.90
285;DHT22;127;48.770;9.212;2023-04-15T02:17:22;3.60;99.90
285;DHT22;127;48.770;9.212;2023-04-15T02:19:50;3.50;99.90
285;DHT22;127;48.770;9.212;2023-04-15T02:22:19;3.50;99.90
285;DHT22;127;48.770;9.212;2023-04-15T02:24:50;3.40;99.90
285;DHT22;127;48.770;9.212;2023-04-15T02:27:23;3.40;99.90
285;DHT22;127;48.770;9.212;2023-04-15T02:29:54;3.30;99.90
285;DHT22;127;48.770;9.212;2023-04-15T02:32:24;3.30;99.90
285;DHT22;127;48.770;9.212;2023-04-15T02:35:01;3.20;99.90
285;DHT22;127;48.770;9.212;2023-04-15T02:37:31;3.20;99.90
285;DHT22;127;48.770;9.212;2023-04-15T02:40:06;3.20;99.90
285;DHT22;127;48.770;9.212;2023-04-15T02:42:39;3.20;99.90
285;DHT22;127;48.770;9.212;2023-04-15T02:45:09;3.20;99.90
285;DHT22;127;48.770;9.212;2023-04-15T02:47:38;3.20;99.90
285;DHT22;127;48.770;9.212;2023-04-15T02:50:09;3.20;99.90
285;DHT22;127;48.770;9.212;2023-04-15T02:52:40;3.20;99.90
285;DHT22;127;48.770;9.212;2023-04-15T02:55:09;3.20;99.90
285;DHT22;127;48.770;9.212;2023-04-15T02:57:40;3.10;99.90
285;DHT22;127;48.770;9.212;2023-04-15T03:00:10;3.10;99.90
285;DHT22;127;48.770;9.212;2023-04-15T03:02:39;3.10;99.90
285;DHT22;127;48.770;9.212;2023-04-15T03:05:10;3.10;99.90
285;DHT22;127;48.770;9.212;2023-04-15T03:07:44;3.10;99.90
285;DHT22;127;48.770;9.212;2023-04-15T03:10:13;3.10;99.90
285;DHT22;127;48.770;9.212;2023-04-15T03:12:44;3.10;99.90
285;DHT22;127;48.770;9.212;2023-04-15T03:15:14;3.00;99.90
285;DHT22;127;48.770;9.212;2023-04-15T03:17:43;3.10;99.90
285;DHT22;127;48.770;9.212;2023-04-15T03:20:16;3.10;99.90
285;DHT22;127;48.770;9.212;2023-04-15T03:22:45;3.10;99.90
285;DHT22;127;48.770;9.212;2023-04-15T03:25:14;3.10;99.90
285;DHT22;127;48.770;9.212;2023-04-15T03:27:48;3.10;99.90
285;DHT22;127;48.770;9.212;2023-04-15T03:30:29;3.20;99.90
285;DHT22;127;48.770;9.212;2023-04-15T03:33:05;3.10;99.90
285;DHT22;127;48.770;9.212;2023-04-15T03:35:34;3.10;99.90
285;DHT22;127;48.770;9.212;2023-04-15T03:38:08;3.10;99.90
285;DHT22;127;48.770;9.212;2023-04-15T03:40:39;3.10;99.90
285;DHT22;127;48.770;9.212;2023-04-15T03:43:12;3.00;99.90
285;DHT22;127;48.770;9.212;2023-04-15T03:45:44;3.00;99.90
285;DHT22;127;48.770;9.212;2023-04-15T03:48:16;3.00;99.90
285;DHT22;127;48.770;9.212;2023-04-15T03:50:45;3.00;99.90
285;DHT22;127;48.770;9.212;2023-04-15T03:53:16;3.00;99.90
285;DHT22;127;48.770;9.212;2023-04-15T03:55:46;3.00;99.90
285;DHT22;127;48.770;9.212;2023-04-15T03:58:20;2.90;99.90
285;DHT22;127;48.770;9.212;2023-04-15T04:00:50;2.90;99.90
285;DHT22;127;48.770;9.212;2023-04-15T04:03:19;2.90;99.90
285;DHT22;127;48.770;9.212;2023-04-15T04:05:48;2.90;99.90
285;DHT22;127;48.770;9.212;2023-04-15T04:08:17;2.80;99.90
285;DHT22;127;48.770;9.212;2023-04-15T04:10:46;2.80;99.90
285;DHT22;127;48.770;9.212;2023-04-15T04:13:17;2.80;99.90
285;DHT22;127;48.770;9.212;2023-04-15T04:15:51;2.80;99.90
285;DHT22;127;48.770;9.212;2023-04-15T04:18:20;2.80;99.90
285;DHT22;127;48.770;9.212;2023-04-15T04:20:49;2.80;99.90
285;DHT22;127;48.770;9.212;2023-04-15T04:23:17;2.80;99.90
285;DHT22;127;48.770;9.212;2023-04-15T04:25:48;2.80;99.90
285;DHT22;127;48.770;9.212;2023-04-15T04:28:19;2.80;99.90
285;DHT22;127;48.770;9.212;2023-04-15T04:30:51;2.80;99.90
285;DHT22;127;48.770;9.212;2023-04-15T04:33:20;2.70;99.90
285;DHT22;127;48.770;9.212;2023-04-15T04:35:49;2.70;99.90
285;DHT22;127;48.770;9.212;2023-04-15T04:38:17;2.70;99.90
285;DHT22;127;48.770;9.212;2023-04-15T04:40:50;2.80;99.90
285;DHT22;127;48.770;9.212;2023-04-15T04:43:23;2.80;99.90
285;DHT22;127;48.770;9.212;2023-04-15T04:45:52;2.80;99.90
285;DHT22;127;48.770;9.212;2023-04-15T04:48:21;2.80;99.90
285;DHT22;127;48.770;9.212;2023-04-15T04:50:49;2.80;99.90
285;DHT22;127;48.770;9.212;2023-04-15T04:53:18;2.70;99.90
285;DHT22;127;48.770;9.212;2023-04-15T04:55:58;2.70;99.90
285;DHT22;127;48.770;9.212;2023-04-15T04:58:29;2.70;99.90
285;DHT22;127;48.770;9.212;2023-04-15T05:00:58;2.70;99.90
285;DHT22;127;48.770;9.212;2023-04-15T05:03:27;2.70;99.90
285;DHT22;127;48.770;9.212;2023-04-15T05:05:56;2.60;99.90
285;DHT22;127;48.770;9.212;2023-04-15T05:08:25;2.60;99.90
285;DHT22;127;48.770;9.212;2023-04-15T05:10:56;2.50;99.90
285;DHT22;127;48.770;9.212;2023-04-15T05:13:29;2.50;99.90
285;DHT22;127;48.770;9.212;2023-04-15T05:15:57;2.50;99.90
285;DHT22;127;48.770;9.212;2023-04-15T05:18:26;2.50;99.90
285;DHT22;127;48.770;9.212;2023-04-15T05:20:56;2.50;99.90
285;DHT22;127;48.770;9.212;2023-04-15T05:23:26;2.50;99.90
285;DHT22;127;48.770;9.212;2023-04-15T05:26:04;2.50;99.90
285;DHT22;127;48.770;9.212;2023-04-15T05:28:39;2.60;99.90
285;DHT22;127;48.770;9.212;2023-04-15T05:31:11;2.60;99.90
285;DHT22;127;48.770;9.212;2023-04-15T05:33:40;2.60;99.90
285;DHT22;127;48.770;9.212;2023-04-15T05:36:10;2.70;99.90
285;DHT22;127;48.770;9.212;2023-04-15T05:38:41;2.80;99.90
285;DHT22;127;48.770;9.212;2023-04-15T05:41:09;2.90;99.90
285;DHT22;127;48.770;9.212;2023-04-15T05:43:45;2.90;99.90
285;DHT22;127;48.770;9.212;2023-04-15T05:46:13;3.00;99.90
285;DHT22;127;48.770;9.212;2023-04-15T05:48:42;3.10;99.90
285;DHT22;127;48.770;9.212;2023-04-15T05:51:11;3.20;99.90
285;DHT22;127;48.770;9.212;2023-04-15T05:53:40;3.30;99.90
285;DHT22;127;48.770;9.212;2023-04-15T05:56:08;3.30;99.90
285;DHT22;127;48.770;9.212;2023-04-15T05:58:43;3.40;99.90
285;DHT22;127;48.770;9.212;2023-04-15T06:01:11;3.50;99.90
285;DHT22;127;48.770;9.212;2023-04-15T06:03:43;3.70;99.90
285;DHT22;127;48.770;9.212;2023-04-15T06:06:13;3.80;99.90
285;DHT22;127;48.770;9.212;2023-04-15T06:08:41;4.00;99.90
285;DHT22;127;48.770;9.212;2023-04-15T06:11:10;4.20;99.90
285;DHT22;127;48.770;9.212;2023-04-15T06:13:39;4.40;99.90
285;DHT22;127;48.770;9.212;2023-04-15T06:16:12;4.60;99.90
285;DHT22;127;48.770;9.212;2023-04-15T06:18:41;4.80;99.90
285;DHT22;127;48.770;9.212;2023-04-15T06:21:10;5.10;99.90
285;DHT22;127;48.770;9.212;2023-04-15T06:23:39;5.40;99.90
285;DHT22;127;48.770;9.212;2023-04-15T06:26:08;5.60;99.90
285;DHT22;127;48.770;9.212;2023-04-15T06:28:37;5.80;99.90
285;DHT22;127;48.770;9.212;2023-04-15T06:31:05;5.90;99.90
285;DHT22;127;48.770;9.212;2023-04-15T06:33:38;6.10;99.90
285;DHT22;127;48.770;9.212;2023-04-15T06:36:09;6.20;99.90
285;DHT22;127;48.770;9.212;2023-04-15T06:38:41;6.50;99.90
285;DHT22;127;48.770;9.212;2023-04-15T06:41:10;6.70;99.90
285;DHT22;127;48.770;9.212;2023-04-15T06:43:38;7.00;99.90
285;DHT22;127;48.770;9.212;2023-04-15T06:46:08;7.30;99.90
285;DHT22;127;48.770;9.212;2023-04-15T06:48:40;7.60;99.90
285;DHT22;127;48.770;9.212;2023-04-15T06:51:09;7.70;99.90
285;DHT22;127;48.770;9.212;2023-04-15T06:53:38;7.70;99.90
285;DHT22;127;48.770;9.212;2023-04-15T06:56:08;7.70;99.90
285;DHT22;127;48.770;9.212;2023-04-15T06:58:46;7.70;99.90
285;DHT22;127;48.770;9.212;2023-04-15T07:01:28;8.00;99.90
285;DHT22;127;48.770;9.212;2023-04-15T07:04:07;8.40;99.90
285;DHT22;127;48.770;9.212;2023-04-15T07:06:36;8.60;99.90
285;DHT22;127;48.770;9.212;2023-04-15T07:09:18;8.90;99.90
285;DHT22;127;48.770;9.212;2023-04-15T07:11:46;9.10;99.90
285;DHT22;127;48.770;9.212;2023-04-15T07:14:17;9.30;99.90
285;DHT22;127;48.770;9.212;2023-04-15T07:16:46;9.30;99.90
285;DHT22;127;48.770;9.212;2023-04-15T07:19:19;9.20;99.90
285;DHT22;127;48.770;9.212;2023-04-15T07:21:48;9.30;99.90
285;DHT22;127;48.770;9.212;2023-04-15T07:26:27;9.50;99.90
285;DHT22;127;48.770;9.212;2023-04-15T07:27:31;9.50;99.90
285;DHT22;127;48.770;9.212;2023-04-15T07:30:03;9.40;99.90
285;DHT22;127;48.770;9.212;2023-04-15T07:32:31;9.40;99.90
285;DHT22;127;48.770;9.212;2023-04-15T07:35:06;9.40;99.90
285;DHT22;127;48.770;9.212;2023-04-15T07:37:36;9.60;99.90
285;DHT22;127;48.770;9.212;2023-04-15T07:40:06;9.70;99.90
285;DHT22;127;48.770;9.212;2023-04-15T07:42:35;9.80;99.90
285;DHT22;127;48.770;9.212;2023-04-15T07:45:05;10.00;99.90
285;DHT22;127;48.770;9.212;2023-04-15T07:47:35;10.10;99.90
285;DHT22;127;48.770;9.212;2023-04-15T07:50:10;10.10;99.90
285;DHT22;127;48.770;9.212;2023-04-15T07:52:47;10.20;99.90
285;DHT22;127;48.770;9.212;2023-04-15T07:55:16;10.20;99.90
285;DHT22;127;48.770;9.212;2023-04-15T07:57:48;10.50;99.90
285;DHT22;127;48.770;9.212;2023-04-15T08:00:17;10.70;99.90
285;DHT22;127;48.770;9.212;2023-04-15T08:02:47;10.80;99.90
285;DHT22;127;48.770;9.212;2023-04-15T08:05:22;11.10;99.90
285;DHT22;127;48.770;9.212;2023-04-15T08:07:58;11.50;99.90
285;DHT22;127;48.770;9.212;2023-04-15T08:10:28;11.90;99.90
285;DHT22;127;48.770;9.212;2023-04-15T08:12:57;12.90;99.90
285;DHT22;127;48.770;9.212;2023-04-15T08:15:26;13.20;99.90
285;DHT22;127;48.770;9.212;2023-04-15T08:18:01;13.80;99.90
285;DHT22;127;48.770;9.212;2023-04-15T08:20:35;14.70;99.90
285;DHT22;127;48.770;9.212;2023-04-15T08:23:04;15.00;99.90
285;DHT22;127;48.770;9.212;2023-04-15T08:25:35;14.50;99.90
285;DHT22;127;48.770;9.212;2023-04-15T08:28:05;13.40;99.90
285;DHT22;127;48.770;9.212;2023-04-15T08:30:36;13.50;99.90
285;DHT22;127;48.770;9.212;2023-04-15T08:33:14;14.30;99.90
285;DHT22;127;48.770;9.212;2023-04-15T08:35:45;15.40;99.90
285;DHT22;127;48.770;9.212;2023-04-15T08:38:14;16.50;99.90
285;DHT22;127;48.770;9.212;2023-04-15T08:40:46;17.20;99.90
285;DHT22;127;48.770;9.212;2023-04-15T08:43:19;18.10;99.90
285;DHT22;127;48.770;9.212;2023-04-15T08:45:49;18.50;99.90
285;DHT22;127;48.770;9.212;2023-04-15T08:48:19;19.00;99.90
285;DHT22;127;48.770;9.212;2023-04-15T08:50:54;18.90;99.90
285;DHT22;127;48.770;9.212;2023-04-15T08:53:28;19.70;99.90
285;DHT22;127;48.770;9.212;2023-04-15T08:56:04;21.10;99.90
285;DHT22;127;48.770;9.212;2023-04-15T08:58:38;21.60;99.90
285;DHT22;127;48.770;9.212;2023-04-15T09:01:07;22.60;99.90
285;DHT22;127;48.770;9.212;2023-04-15T09:03:36;22.00;99.90
285;DHT22;127;48.770;9.212;2023-04-15T09:06:40;22.80;99.90
285;DHT22;127;48.770;9.212;2023-04-15T09:09:10;22.60;99.90
285;DHT22;127;48.770;9.212;2023-04-15T09:11:39;23.30;99.90
285;DHT22;127;48.770;9.212;2023-04-15T09:17:27;22.40;99.90
285;DHT22;127;48.770;9.212;2023-04-15T09:20:07;22.20;99.90
285;DHT22;127;48.770;9.212;2023-04-15T09:22:42;22.30;99.90
285;DHT22;127;48.770;9.212;2023-04-15T09:25:25;22.90;99.90
285;DHT22;127;48.770;9.212;2023-04-15T09:27:57;22.40;99.90
285;DHT22;127;48.770;9.212;2023-04-15T09:30:27;22.30;99.90
285;DHT22;127;48.770;9.212;2023-04-15T09:32:57;22.60;99.90
285;DHT22;127;48.770;9.212;2023-04-15T09:35:30;22.10;99.90
285;DHT22;127;48.770;9.212;2023-04-15T09:38:06;20.90;99.90
285;DHT22;127;48.770;9.212;2023-04-15T09:40:36;21.10;99.90
285;DHT22;127;48.770;9.212;2023-04-15T09:43:08;20.70;99.90
285;DHT22;127;48.770;9.212;2023-04-15T09:45:38;21.10;99.90
285;DHT22;127;48.770;9.212;2023-04-15T09:48:16;20.90;99.90
285;DHT22;127;48.770;9.212;2023-04-15T09:50:46;21.00;99.90
285;DHT22;127;48.770;9.212;2023-04-15T09:53:19;20.60;99.90
285;DHT22;127;48.770;9.212;2023-04-15T09:55:54;20.00;99.90
285;DHT22;127;48.770;9.212;2023-04-15T09:58:24;19.60;99.90
285;DHT22;127;48.770;9.212;2023-04-15T10:01:09;19.50;99.90
285;DHT22;127;48.770;9.212;2023-04-15T10:03:39;19.30;99.90
285;DHT22;127;48.770;9.212;2023-04-15T10:06:08;18.80;99.90
285;DHT22;127;48.770;9.212;2023-04-15T10:08:42;18.40;99.90
285;DHT22;127;48.770;9.212;2023-04-15T10:11:11;18.00;99.90
285;DHT22;127;48.770;9.212;2023-04-15T10:13:42;18.00;99.90
285;DHT22;127;48.770;9.212;2023-04-15T10:16:15;17.80;99.90
285;DHT22;127;48.770;9.212;2023-04-15T10:18:46;17.70;99.90
285;DHT22;127;48.770;9.212;2023-04-15T10:21:19;17.60;99.90
285;DHT22;127;48.770;9.212;2023-04-15T10:23:56;17.50;99.90
285;DHT22;127;48.770;9.212;2023-04-15T10:26:26;17.40;99.90
285;DHT22;127;48.770;9.212;2023-04-15T10:29:03;17.60;99.90
285;DHT22;127;48.770;9.212;2023-04-15T10:31:32;18.50;99.90
285;DHT22;127;48.770;9.212;2023-04-15T10:34:03;20.00;99.90
285;DHT22;127;48.770;9.212;2023-04-15T10:36:35;20.60;99.90
285;DHT22;127;48.770;9.212;2023-04-15T10:39:46;20.90;99.90
285;DHT22;127;48.770;9.212;2023-04-15T10:42:19;20.90;99.90
285;DHT22;127;48.770;9.212;2023-04-15T10:44:49;20.80;99.90
285;DHT22;127;48.770;9.212;2023-04-15T10:47:19;20.40;99.90
285;DHT22;127;48.770;9.212;2023-04-15T10:49:49;20.00;99.90
285;DHT22;127;48.770;9.212;2023-04-15T10:52:22;19.30;99.90
285;DHT22;127;48.770;9.212;2023-04-15T10:55:12;18.50;99.90
285;DHT22;127;48.770;9.212;2023-04-15T10:57:42;18.20;99.90
285;DHT22;127;48.770;9.212;2023-04-15T11:00:13;18.40;99.90
285;DHT22;127;48.770;9.212;2023-04-15T11:02:44;18.70;99.90
285;DHT22;127;48.770;9.212;2023-04-15T11:05:14;19.10;99.90
285;DHT22;127;48.770;9.212;2023-04-15T11:07:49;20.20;99.90
285;DHT22;127;48.770;9.212;2023-04-15T11:13:28;20.60;99.90
285;DHT22;127;48.770;9.212;2023-04-15T11:16:01;19.80;99.90
285;DHT22;127;48.770;9.212;2023-04-15T11:18:33;20.10;99.90
285;DHT22;127;48.770;9.212;2023-04-15T11:21:08;20.30;99.90
285;DHT22;127;48.770;9.212;2023-04-15T11:23:41;19.70;99.90
285;DHT22;127;48.770;9.212;2023-04-15T11:26:13;20.00;99.90
285;DHT22;127;48.770;9.212;2023-04-15T11:28:45;21.00;99.90
285;DHT22;127;48.770;9.212;2023-04-15T11:31:15;22.20;99.90
285;DHT22;127;48.770;9.212;2023-04-15T11:33:46;21.60;99.90
285;DHT22;127;48.770;9.212;2023-04-15T11:36:15;20.50;99.90
285;DHT22;127;48.770;9.212;2023-04-15T11:38:45;20.20;99.90
285;DHT22;127;48.770;9.212;2023-04-15T11:41:14;20.50;99.90
285;DHT22;127;48.770;9.212;2023-04-15T11:43:56;21.10;99.90
285;DHT22;127;48.770;9.212;2023-04-15T11:46:28;21.60;99.90
285;DHT22;127;48.770;9.212;2023-04-15T11:49:03;20.90;99.90
285;DHT22;127;48.770;9.212;2023-04-15T11:51:33;20.10;99.90
285;DHT22;127;48.770;9.212;2023-04-15T11:54:02;18.70;99.90
285;DHT22;127;48.770;9.212;2023-04-15T11:56:33;17.90;99.90
285;DHT22;127;48.770;9.212;2023-04-15T11:59:05;17.00;99.90
285;DHT22;127;48.770;9.212;2023-04-15T12:01:36;16.10;99.90
285;DHT22;127;48.770;9.212;2023-04-15T12:04:10;15.90;99.90
285;DHT22;127;48.770;9.212;2023-04-15T12:06:39;16.20;99.90
285;DHT22;127;48.770;9.212;2023-04-15T12:09:09;16.60;99.90
285;DHT22;127;48.770;9.212;2023-04-15T12:11:43;16.70;99.90
285;DHT22;127;48.770;9.212;2023-04-15T12:14:20;17.40;99.90
285;DHT22;127;48.770;9.212;2023-04-15T12:16:50;18.10;99.90
285;DHT22;127;48.770;9.212;2023-04-15T12:19:22;18.10;99.90
285;DHT22;127;48.770;9.212;2023-04-15T12:21:57;17.70;99.90
285;DHT22;127;48.770;9.212;2023-04-15T12:24:26;17.10;99.90
285;DHT22;127;48.770;9.212;2023-04-15T12:26:56;16.60;99.90
285;DHT22;127;48.770;9.212;2023-04-15T12:29:39;16.40;99.90
285;DHT22;127;48.770;9.212;2023-04-15T12:32:09;16.10;99.90
285;DHT22;127;48.770;9.212;2023-04-15T12:34:41;15.10;99.90
285;DHT22;127;48.770;9.212;2023-04-15T12:37:11;14.20;99.90
285;DHT22;127;48.770;9.212;2023-04-15T12:39:50;13.40;99.90
285;DHT22;127;48.770;9.212;2023-04-15T12:42:21;12.50;99.90
285;DHT22;127;48.770;9.212;2023-04-15T12:44:53;11.50;99.90
285;DHT22;127;48.770;9.212;2023-04-15T12:47:24;10.70;99.90
285;DHT22;127;48.770;9.212;2023-04-15T12:50:02;10.20;99.90
285;DHT22;127;48.770;9.212;2023-04-15T12:52:31;9.80;99.90
285;DHT22;127;48.770;9.212;2023-04-15T12:55:04;9.50;99.90
285;DHT22;127;48.770;9.212;2023-04-15T12:57:33;9.50;99.90
285;DHT22;127;48.770;9.212;2023-04-15T13:00:08;9.50;99.90
285;DHT22;127;48.770;9.212;2023-04-15T13:02:40;9.60;99.90
285;DHT22;127;48.770;9.212;2023-04-15T13:05:18;9.70;99.90
285;DHT22;127;48.770;9.212;2023-04-15T13:07:47;9.80;99.90
285;DHT22;127;48.770;9.212;2023-04-15T13:10:20;10.00;99.90
285;DHT22;127;48.770;9.212;2023-04-15T13:12:49;10.20;99.90
285;DHT22;127;48.770;9.212;2023-04-15T13:15:20;10.50;99.90
285;DHT22;127;48.770;9.212;2023-04-15T13:17:52;10.80;99.90
285;DHT22;127;48.770;9.212;2023-04-15T13:20:23;11.20;99.90
285;DHT22;127;48.770;9.212;2023-04-15T13:22:52;11.60;99.90
285;DHT22;127;48.770;9.212;2023-04-15T13:25:21;11.70;99.90
285;DHT22;127;48.770;9.212;2023-04-15T13:27:50;12.00;99.90
285;DHT22;127;48.770;9.212;2023-04-15T13:30:23;12.20;99.90
285;DHT22;127;48.770;9.212;2023-04-15T13:32:52;12.40;99.90
285;DHT22;127;48.770;9.212;2023-04-15T13:35:21;12.50;99.90
285;DHT22;127;48.770;9.212;2023-04-15T13:37:50;12.70;99.90
285;DHT22;127;48.770;9.212;2023-04-15T13:40:19;12.70;99.90
285;DHT22;127;48.770;9.212;2023-04-15T13:42:52;13.10;99.90
285;DHT22;127;48.770;9.212;2023-04-15T13:45:24;13.40;99.90
285;DHT22;127;48.770;9.212;2023-04-15T13:47:54;13.70;99.90
285;DHT22;127;48.770;9.212;2023-04-15T13:50:23;13.80;99.90
285;DHT22;127;48.770;9.212;2023-04-15T13:52:52;13.90;99.90
285;DHT22;127;48.770;9.212;2023-04-15T13:55:21;13.80;99.90
285;DHT22;127;48.770;9.212;2023-04-15T13:57:49;13.70;99.90
285;DHT22;127;48.770;9.212;2023-04-15T14:00:20;13.70;99.90
285;DHT22;127;48.770;9.212;2023-04-15T14:02:51;13.50;99.90
285;DHT22;127;48.770;9.212;2023-04-15T14:05:20;13.50;99.90
285;DHT22;127;48.770;9.212;2023-04-15T14:07:49;13.40;99.90
285;DHT22;127;48.770;9.212;2023-04-15T14:10:18;13.20;99.90
285;DHT22;127;48.770;9.212;2023-04-15T14:12:49;12.90;99.90
285;DHT22;127;48.770;9.212;2023-04-15T14:15:20;12.80;99.90
285;DHT22;127;48.770;9.212;2023-04-15T14:17:54;12.70;99.90
285;DHT22;127;48.770;9.212;2023-04-15T14:20:24;12.50;99.90
285;DHT22;127;48.770;9.212;2023-04-15T14:23:00;12.50;99.90
285;DHT22;127;48.770;9.212;2023-04-15T14:25:31;12.30;99.90
285;DHT22;127;48.770;9.212;2023-04-15T14:28:03;12.30;99.90
285;DHT22;127;48.770;9.212;2023-04-15T14:30:34;12.30;99.90
285;DHT22;127;48.770;9.212;2023-04-15T14:33:05;12.40;99.90
285;DHT22;127;48.770;9.212;2023-04-15T14:35:34;12.40;99.90
285;DHT22;127;48.770;9.212;2023-04-15T14:38:03;12.40;99.90
285;DHT22;127;48.770;9.212;2023-04-15T14:40:37;12.40;99.90
285;DHT22;127;48.770;9.212;2023-04-15T14:43:15;12.30;99.90
285;DHT22;127;48.770;9.212;2023-04-15T14:45:44;12.10;99.90
285;DHT22;127;48.770;9.212;2023-04-15T14:48:20;11.90;99.90
285;DHT22;127;48.770;9.212;2023-04-15T14:50:49;11.70;99.90
285;DHT22;127;48.770;9.212;2023-04-15T14:53:18;11.70;99.90
285;DHT22;127;48.770;9.212;2023-04-15T14:55:48;11.50;99.90
285;DHT22;127;48.770;9.212;2023-04-15T15:01:00;11.30;99.90
285;DHT22;127;48.770;9.212;2023-04-15T15:03:44;11.10;99.90
285;DHT22;127;48.770;9.212;2023-04-15T15:06:16;11.00;99.90
285;DHT22;127;48.770;9.212;2023-04-15T15:08:45;10.90;99.90
285;DHT22;127;48.770;9.212;2023-04-15T15:11:17;10.70;99.90
285;DHT22;127;48.770;9.212;2023-04-15T15:13:48;10.70;99.90
285;DHT22;127;48.770;9.212;2023-04-15T15:16:20;10.60;99.90
285;DHT22;127;48.770;9.212;2023-04-15T15:18:55;10.60;99.90
285;DHT22;127;48.770;9.212;2023-04-15T15:21:24;10.50;99.90
285;DHT22;127;48.770;9.212;2023-04-15T15:23:53;10.50;99.90
285;DHT22;127;48.770;9.212;2023-04-15T15:26:22;10.40;99.90
285;DHT22;127;48.770;9.212;2023-04-15T15:28:52;10.40;99.90
285;DHT22;127;48.770;9.212;2023-04-15T15:31:25;10.30;99.90
285;DHT22;127;48.770;9.212;2023-04-15T15:33:58;10.40;99.90
285;DHT22;127;48.770;9.212;2023-04-15T15:36:29;10.40;99.90
285;DHT22;127;48.770;9.212;2023-04-15T15:39:00;10.40;99.90
285;DHT22;127;48.770;9.212;2023-04-15T15:41:29;10.40;99.90
285;DHT22;127;48.770;9.212;2023-04-15T15:43:58;10.30;99.90
285;DHT22;127;48.770;9.212;2023-04-15T15:46:28;10.20;99.90
285;DHT22;127;48.770;9.212;2023-04-15T15:49:03;10.20;99.90
285;DHT22;127;48.770;9.212;2023-04-15T15:51:35;10.20;99.90
285;DHT22;127;48.770;9.212;2023-04-15T15:54:04;10.20;99.90
285;DHT22;127;48.770;9.212;2023-04-15T15:56:34;10.20;99.90
285;DHT22;127;48.770;9.212;2023-04-15T15:59:04;10.10;99.90
285;DHT22;127;48.770;9.212;2023-04-15T16:01:32;10.20;99.90
285;DHT22;127;48.770;9.212;2023-04-15T16:04:04;10.20;99.90
285;DHT22;127;48.770;9.212;2023-04-15T16:06:35;10.20;99.90
285;DHT22;127;48.770;9.212;2023-04-15T16:09:03;10.20;99.90
285;DHT22;127;48.770;9.212;2023-04-15T16:11:32;10.30;99.90
285;DHT22;127;48.770;9.212;2023-04-15T16:14:10;10.10;99.90
285;DHT22;127;48.770;9.212;2023-04-15T16:16:40;10.00;99.90
285;DHT22;127;48.770;9.212;2023-04-15T16:19:14;9.90;99.90
285;DHT22;127;48.770;9.212;2023-04-15T16:21:43;9.80;99.90
285;DHT22;127;48.770;9.212;2023-04-15T16:24:13;9.70;99.90
285;DHT22;127;48.770;9.212;2023-04-15T16:26:42;9.60;99.90
285;DHT22;127;48.770;9.212;2023-04-15T16:29:10;9.40;99.90
285;DHT22;127;48.770;9.212;2023-04-15T16:31:42;9.30;99.90
285;DHT22;127;48.770;9.212;2023-04-15T16:34:14;9.20;99.90
285;DHT22;127;48.770;9.212;2023-04-15T16:36:45;9.10;99.90
285;DHT22;127;48.770;9.212;2023-04-15T16:39:14;9.00;99.90
285;DHT22;127;48.770;9.212;2023-04-15T16:41:49;8.90;99.90
285;DHT22;127;48.770;9.212;2023-04-15T16:44:18;8.90;99.90
285;DHT22;127;48.770;9.212;2023-04-15T16:46:49;8.90;99.90
285;DHT22;127;48.770;9.212;2023-04-15T16:49:20;8.90;99.90
285;DHT22;127;48.770;9.212;2023-04-15T16:51:49;8.80;99.90
285;DHT22;127;48.770;9.212;2023-04-15T16:54:20;8.70;99.90
285;DHT22;127;48.770;9.212;2023-04-15T16:56:49;8.70;99.90
285;DHT22;127;48.770;9.212;2023-04-15T16:59:17;8.60;99.90
285;DHT22;127;48.770;9.212;2023-04-15T17:01:51;8.60;99.90
285;DHT22;127;48.770;9.212;2023-04-15T17:04:28;8.50;99.90
285;DHT22;127;48.770;9.212;2023-04-15T17:06:56;8.50;99.90
285;DHT22;127;48.770;9.212;2023-04-15T17:09:29;8.40;99.90
285;DHT22;127;48.770;9.212;2023-04-15T17:11:58;8.40;99.90
285;DHT22;127;48.770;9.212;2023-04-15T17:14:27;8.30;99.90
285;DHT22;127;48.770;9.212;2023-04-15T17:16:56;8.20;99.90
285;DHT22;127;48.770;9.212;2023-04-15T17:19:27;8.20;99.90
285;DHT22;127;48.770;9.212;2023-04-15T17:21:58;8.10;99.90